Time;durP1;ratioP1;P1;durP2;ratioP2;P2;SDS_P1;SDS_P2;PMS_P1;PMS_P2;Temp;Humidity;BMP_temperature;BMP_pressure;BME280_temperature;BME280_humidity;BME280_pressure;Samples;Min_cycle;Max_cycle;Signal;HPM_P1;HPM_P2
2022/02/12 00:00:45;;;;;;;10.57;5.85;;;;;;;-5.04;100.00;94381.41;2115028;28;20020;-84
2022/02/12 00:01:46;;;;;;;8.75;5.70;;;;;;;-5.00;100.00;94372.75;2098122;28;20016;-84
2022/02/12 00:02:48;;;;;;;9.40;5.70;;;;;;;-5.01;100.00;94381.59;2109919;28;20031;-84
2022/02/12 00:04:00;;;;;;;8.27;5.80;;;;;;;-5.07;100.00;94380.16;2106419;28;20028;-84
2022/02/12 00:05:02;;;;;;;10.30;6.63;;;;;;;-4.97;100.00;94374.75;2101434;28;20403;-84
2022/02/12 00:06:03;;;;;;;10.55;5.40;;;;;;;-4.95;100.00;94379.69;2107854;27;20590;-83
2022/02/12 00:07:04;;;;;;;8.15;5.78;;;;;;;-5.07;100.00;94373.09;2115118;28;20027;-84
2022/02/12 00:08:06;;;;;;;10.10;5.43;;;;;;;-5.13;100.00;94373.47;2123431;27;20019;-85
2022/02/12 00:09:06;;;;;;;11.77;6.30;;;;;;;-5.16;100.00;94374.03;2123445;27;20019;-84
2022/02/12 00:10:08;;;;;;;9.55;5.35;;;;;;;-5.12;100.00;94373.19;2106486;28;20107;-85
2022/02/12 00:11:09;;;;;;;8.45;5.50;;;;;;;-5.17;100.00;94370.66;2106359;28;20047;-83
2022/02/12 00:12:09;;;;;;;8.38;5.75;;;;;;;-5.14;100.00;94362.25;2106493;28;20023;-83
2022/02/12 00:13:11;;;;;;;9.50;5.43;;;;;;;-4.94;100.00;94361.16;2114818;27;20019;-84
2022/02/12 00:14:12;;;;;;;7.60;5.43;;;;;;;-4.81;100.00;94363.00;2106478;28;20071;-84
2022/02/12 00:15:15;;;;;;;8.80;5.45;;;;;;;-4.99;100.00;94363.09;2106715;28;20119;-84
2022/02/12 00:16:16;;;;;;;9.65;5.78;;;;;;;-5.04;100.00;94352.75;2106854;28;20024;-83
2022/02/12 00:17:17;;;;;;;10.05;5.63;;;;;;;-5.09;100.00;94351.78;2098101;28;20020;-82
2022/02/12 00:18:18;;;;;;;10.32;5.90;;;;;;;-5.16;100.00;94366.22;2097501;28;20029;-85
2022/02/12 00:19:19;;;;;;;9.48;4.47;;;;;;;-5.23;100.00;94363.97;2104649;28;20031;-83
2022/02/12 00:20:21;;;;;;;8.73;5.20;;;;;;;-5.27;100.00;94368.22;2098123;28;20016;-85
2022/02/12 00:21:24;;;;;;;6.65;5.13;;;;;;;-5.24;100.00;94354.63;2101770;27;20040;-84
2022/02/12 00:22:25;;;;;;;9.05;5.43;;;;;;;-5.06;100.00;94359.00;2111382;28;20464;-84
2022/02/12 00:23:26;;;;;;;11.25;5.40;;;;;;;-5.09;100.00;94356.22;2098365;28;20520;-85
2022/02/12 00:24:27;;;;;;;9.32;5.32;;;;;;;-5.20;100.00;94350.38;2106370;28;20055;-85
2022/02/12 00:25:28;;;;;;;7.05;5.45;;;;;;;-5.21;100.00;94351.44;2098185;28;20104;-84
2022/02/12 00:26:29;;;;;;;13.25;5.35;;;;;;;-5.25;100.00;94360.13;2102517;28;20031;-84
2022/02/12 00:27:30;;;;;;;9.07;5.82;;;;;;;-5.33;100.00;94353.72;2123241;27;20351;-83
2022/02/12 00:28:31;;;;;;;9.82;4.95;;;;;;;-5.40;100.00;94359.31;2123820;27;20069;-85
2022/02/12 00:29:32;;;;;;;7.85;5.03;;;;;;;-5.44;100.00;94352.34;2114735;28;20023;-84
2022/02/12 00:30:33;;;;;;;7.72;4.72;;;;;;;-5.41;100.00;94352.53;2115106;27;20019;-86
2022/02/12 00:31:34;;;;;;;8.02;4.72;;;;;;;-5.46;100.00;94355.22;2123261;27;20027;-84
2022/02/12 00:32:35;;;;;;;8.77;5.20;;;;;;;-5.24;100.00;94353.84;2115011;28;20466;-83
2022/02/12 00:33:36;;;;;;;7.03;4.75;;;;;;;-5.24;100.00;94348.63;2114996;28;20027;-85
2022/02/12 00:34:37;;;;;;;7.78;4.53;;;;;;;-5.33;100.00;94356.31;2104394;28;20032;-84
2022/02/12 00:35:38;;;;;;;9.82;5.15;;;;;;;-5.40;100.00;94354.09;2113607;28;20063;-84
2022/02/12 00:36:39;;;;;;;6.68;4.82;;;;;;;-5.34;100.00;94352.94;2114603;28;20019;-86
2022/02/12 00:37:40;;;;;;;7.07;4.65;;;;;;;-5.35;100.00;94361.06;2114713;27;20504;-84
2022/02/12 00:38:41;;;;;;;8.23;4.35;;;;;;;-5.34;100.00;94347.75;2114658;28;20107;-86
2022/02/12 00:39:42;;;;;;;8.85;4.72;;;;;;;-5.50;100.00;94354.25;2106149;28;20389;-83
2022/02/12 00:40:43;;;;;;;10.15;4.90;;;;;;;-5.47;100.00;94348.47;2107607;27;20024;-85
2022/02/12 00:41:44;;;;;;;10.60;5.25;;;;;;;-5.46;100.00;94346.63;2114635;28;20438;-85
2022/02/12 00:42:47;;;;;;;8.63;4.43;;;;;;;-5.46;100.00;94346.63;2106061;27;20366;-84
2022/02/12 00:43:48;;;;;;;8.10;4.82;;;;;;;-5.52;100.00;94353.00;2114941;28;20034;-85
2022/02/12 00:44:49;;;;;;;9.15;4.20;;;;;;;-5.52;100.00;94340.75;2106078;28;20023;-84
2022/02/12 00:45:50;;;;;;;5.72;4.05;;;;;;;-5.47;100.00;94345.88;2106616;28;20460;-83
2022/02/12 00:46:52;;;;;;;8.23;4.50;;;;;;;-5.48;100.00;94346.16;2097885;28;20028;-84
2022/02/12 00:47:53;;;;;;;7.60;4.15;;;;;;;-5.46;100.00;94346.63;2098155;28;20032;-84
2022/02/12 00:48:54;;;;;;;7.72;4.05;;;;;;;-5.39;100.00;94347.06;2097782;28;20028;-84
2022/02/12 00:49:55;;;;;;;7.70;4.65;;;;;;;-5.26;100.00;94340.34;2105888;28;20032;-85
2022/02/12 00:50:59;;;;;;;10.45;4.50;;;;;;;-5.29;100.00;94344.28;2113242;28;20020;-84
2022/02/12 00:52:00;;;;;;;6.20;4.30;;;;;;;-5.31;100.00;94341.19;2116136;27;20042;-84
2022/02/12 00:53:01;;;;;;;6.53;3.97;;;;;;;-5.39;100.00;94340.00;2106234;28;20388;-85
2022/02/12 00:54:02;;;;;;;10.95;4.47;;;;;;;-5.58;100.00;94334.03;2110615;27;20024;-83
2022/02/12 00:55:04;;;;;;;6.25;3.97;;;;;;;-5.64;100.00;94343.00;2114598;28;20026;-85
2022/02/12 00:56:05;;;;;;;10.00;4.00;;;;;;;-5.69;100.00;94333.44;2114611;28;20432;-85
2022/02/12 00:57:06;;;;;;;6.20;3.90;;;;;;;-5.65;100.00;94339.63;2114415;28;20141;-84
2022/02/12 00:58:07;;;;;;;9.65;4.13;;;;;;;-5.59;100.00;94335.09;2106381;28;20028;-85
2022/02/12 00:59:07;;;;;;;8.57;4.20;;;;;;;-5.47;100.00;94337.28;2106274;28;20031;-84
2022/02/12 01:00:09;;;;;;;10.00;4.38;;;;;;;-5.55;100.00;94336.09;2121746;27;20104;-83
2022/02/12 01:01:10;;;;;;;10.15;4.30;;;;;;;-5.58;100.00;94342.63;2114695;28;20567;-84
2022/02/12 01:02:11;;;;;;;7.82;4.50;;;;;;;-5.59;100.00;94338.47;2097961;28;20035;-83
2022/02/12 01:03:12;;;;;;;5.95;3.60;;;;;;;-5.50;100.00;94336.00;2106621;27;20100;-84
2022/02/12 01:04:13;;;;;;;8.63;4.95;;;;;;;-5.49;100.00;94332.34;2106191;28;20071;-84
2022/02/12 01:05:14;;;;;;;7.85;3.85;;;;;;;-5.49;100.00;94332.34;2097790;28;20032;-84
2022/02/12 01:06:15;;;;;;;7.13;3.90;;;;;;;-5.60;100.00;94334.34;2106110;28;20055;-85
2022/02/12 01:07:16;;;;;;;6.32;4.30;;;;;;;-5.47;100.00;94335.44;2106046;28;20074;-85
2022/02/12 01:08:17;;;;;;;7.35;3.75;;;;;;;-5.43;100.00;94331.22;2105537;28;20027;-84
2022/02/12 01:09:17;;;;;;;7.10;3.88;;;;;;;-5.50;100.00;94332.63;2106845;28;20165;-85
2022/02/12 01:10:18;;;;;;;5.10;3.65;;;;;;;-5.58;100.00;94342.63;2110144;28;20027;-83
2022/02/12 01:11:19;;;;;;;7.28;4.13;;;;;;;-5.45;100.00;94332.53;2105930;28;20020;-85
2022/02/12 01:12:20;;;;;;;8.05;3.80;;;;;;;-5.41;100.00;94331.69;2097738;28;20048;-83
2022/02/12 01:13:21;;;;;;;6.28;4.25;;;;;;;-5.61;100.00;94338.00;2097639;28;20565;-85
2022/02/12 01:14:22;;;;;;;8.20;4.05;;;;;;;-5.73;100.00;94331.69;2097428;28;20016;-85
2022/02/12 01:15:23;;;;;;;8.48;3.83;;;;;;;-5.66;100.00;94327.66;2097424;28;20025;-83
2022/02/12 01:16:34;;;;;;;7.78;4.22;;;;;;;-5.69;100.00;94332.66;2105605;28;20016;-85
2022/02/12 01:17:37;;;;;;;10.68;3.95;;;;;;;-5.73;100.00;94331.69;2108792;27;20119;-85
2022/02/12 01:18:39;;;;;;;8.07;4.43;;;;;;;-5.79;100.00;94331.00;2114899;28;20039;-85
2022/02/12 01:19:40;;;;;;;7.80;3.90;;;;;;;-5.78;100.00;94329.16;2114625;27;20121;-84
2022/02/12 01:20:41;;;;;;;7.43;3.78;;;;;;;-5.82;100.00;94334.16;2105914;28;20095;-83
2022/02/12 01:21:42;;;;;;;6.43;3.83;;;;;;;-5.78;100.00;94331.75;2096966;28;20013;-84
2022/02/12 01:22:43;;;;;;;8.70;4.30;;;;;;;-5.67;100.00;94328.69;2102799;28;20564;-86
2022/02/12 01:23:44;;;;;;;9.98;4.22;;;;;;;-5.74;100.00;94328.31;2106005;28;20032;-85
2022/02/12 01:24:47;;;;;;;6.55;4.40;;;;;;;-5.74;100.00;94324.94;2114152;28;20066;-84
2022/02/12 01:25:49;;;;;;;9.75;4.38;;;;;;;-5.81;100.00;94325.28;2098010;28;20035;-83
2022/02/12 01:26:51;;;;;;;5.47;3.40;;;;;;;-5.85;100.00;94319.09;2104519;28;20407;-84
2022/02/12 01:27:53;;;;;;;7.57;3.40;;;;;;;-5.84;100.00;94323.22;2105934;28;20038;-84
2022/02/12 01:28:54;;;;;;;6.50;3.90;;;;;;;-5.96;100.00;94317.72;2106313;28;20587;-83
2022/02/12 01:29:55;;;;;;;6.20;3.50;;;;;;;-5.99;100.00;94323.50;2106043;28;20035;-87
2022/02/12 01:30:56;;;;;;;6.75;3.30;;;;;;;-5.91;100.00;94312.41;2114235;28;20029;-84
2022/02/12 01:32:03;;;;;;;7.63;4.00;;;;;;;-5.87;100.00;94313.41;2114106;28;20028;-85
2022/02/12 01:33:04;;;;;;;6.97;4.00;;;;;;;-5.90;100.00;94308.75;2113294;27;20036;-83
2022/02/12 01:34:06;;;;;;;9.05;3.88;;;;;;;-5.86;100.00;94310.50;2109124;28;20020;-83
2022/02/12 01:35:07;;;;;;;8.18;4.03;;;;;;;-6.01;100.00;94309.97;2114484;28;20105;-84
2022/02/12 01:36:08;;;;;;;6.03;3.33;;;;;;;-5.98;100.00;94304.97;2114195;28;20480;-84
2022/02/12 01:37:26;;;;;;;6.80;3.90;;;;;;;-5.86;100.00;94305.31;2097425;28;20016;-84
2022/02/12 01:38:28;;;;;;;7.97;3.88;;;;;;;-5.75;100.00;94295.53;2102102;28;20111;-84
2022/02/12 01:39:29;;;;;;;7.03;3.67;;;;;;;-5.76;100.00;94286.16;2097959;28;20050;-83
2022/02/12 01:40:31;;;;;;;5.78;3.55;;;;;;;-5.78;100.00;94290.09;2105633;28;20473;-84
2022/02/12 01:41:32;;;;;;;5.50;3.20;;;;;;;-5.86;100.00;94288.91;2105498;28;20023;-84
2022/02/12 01:42:34;;;;;;;10.00;3.42;;;;;;;-5.86;100.00;94294.13;2097083;28;20626;-84
2022/02/12 01:43:35;;;;;;;5.10;3.63;;;;;;;-5.91;100.00;94287.16;2104086;28;20150;-83
2022/02/12 01:44:37;;;;;;;8.35;3.25;;;;;;;-5.89;100.00;94287.63;2105516;28;20481;-84
2022/02/12 01:45:39;;;;;;;8.43;3.85;;;;;;;-6.00;100.00;94285.50;2112847;28;20023;-84
2022/02/12 01:46:40;;;;;;;3.92;3.47;;;;;;;-6.00;100.00;94278.47;2105754;28;20380;-85
2022/02/12 01:47:41;;;;;;;7.03;3.72;;;;;;;-5.97;100.00;94275.31;2114343;28;20023;-83
2022/02/12 01:48:44;;;;;;;8.20;3.55;;;;;;;-6.04;100.00;94284.53;2114298;27;20023;-84
2022/02/12 01:49:45;;;;;;;5.68;3.70;;;;;;;-5.89;100.00;94281.66;2114246;28;20587;-84
2022/02/12 01:50:50;;;;;;;7.43;3.45;;;;;;;-5.74;100.00;94280.66;2114503;28;20033;-84
2022/02/12 01:51:53;;;;;;;9.48;4.07;;;;;;;-5.80;100.00;94279.19;2106735;27;20081;-85
2022/02/12 01:52:54;;;;;;;8.20;3.58;;;;;;;-5.86;100.00;94276.66;2105975;28;20108;-84
2022/02/12 01:53:55;;;;;;;7.45;3.50;;;;;;;-5.77;100.00;94274.19;2097618;28;20027;-86
2022/02/12 01:54:56;;;;;;;8.45;3.75;;;;;;;-5.80;100.00;94273.97;2105882;28;20392;-85
2022/02/12 01:55:57;;;;;;;8.73;3.45;;;;;;;-5.84;100.00;94276.38;2105522;28;20028;-84
2022/02/12 01:57:01;;;;;;;9.98;3.90;;;;;;;-5.57;100.00;94260.09;2110723;28;20027;-84
2022/02/12 01:58:06;;;;;;;6.50;3.47;;;;;;;-5.82;100.00;94271.66;2097939;28;20024;-85
2022/02/12 01:59:07;;;;;;;6.88;3.53;;;;;;;-5.87;100.00;94272.53;2098527;28;20033;-83
2022/02/12 02:00:11;;;;;;;4.68;3.10;;;;;;;-5.85;100.00;94270.41;2114330;28;20512;-84
2022/02/12 02:01:13;;;;;;;8.00;3.72;;;;;;;-5.95;100.00;94267.22;2119998;27;20027;-85
2022/02/12 02:02:14;;;;;;;7.75;4.40;;;;;;;-6.00;100.00;94278.47;2097200;28;20059;-84
2022/02/12 02:03:15;;;;;;;5.05;3.30;;;;;;;-5.92;100.00;94270.03;2105915;28;20027;-83
2022/02/12 02:04:17;;;;;;;6.97;3.42;;;;;;;-5.89;100.00;94271.25;2113975;28;20026;-86
2022/02/12 02:05:19;;;;;;;7.82;3.67;;;;;;;-5.93;100.00;94271.06;2114283;28;20032;-85
2022/02/12 02:06:20;;;;;;;6.85;3.42;;;;;;;-5.77;100.00;94268.97;2114029;28;20103;-85
2022/02/12 02:07:21;;;;;;;4.88;3.42;;;;;;;-5.88;100.00;94270.22;2105860;28;20023;-85
2022/02/12 02:08:23;;;;;;;4.35;3.25;;;;;;;-5.86;100.00;94270.69;2105342;28;20110;-85
2022/02/12 02:21:34;;;;;;;;;;;;;;;-6.22;100.00;94254.88;2131063;27;20541;-85
2022/02/12 02:22:53;;;;;;;7.68;3.78;;;;;;;-6.25;100.00;94255.41;2112564;28;20398;-84
2022/02/12 02:23:54;;;;;;;7.60;3.67;;;;;;;-6.21;100.00;94251.97;2099512;28;20047;-84
2022/02/12 02:24:55;;;;;;;8.32;3.83;;;;;;;-6.14;100.00;94255.00;2104349;28;20036;-83
2022/02/12 02:25:57;;;;;;;6.65;3.78;;;;;;;-6.02;100.00;94241.53;2095752;28;20082;-83
2022/02/12 02:27:13;;;;;;;5.93;3.47;;;;;;;-6.05;100.00;94249.16;2087408;28;20175;-83
2022/02/12 02:28:14;;;;;;;6.07;3.33;;;;;;;-6.16;100.00;94241.47;2092110;28;20072;-83
2022/02/12 02:29:16;;;;;;;12.55;4.13;;;;;;;-6.04;100.00;94237.69;2104277;28;20039;-84
2022/02/12 02:30:19;;;;;;;5.35;4.00;;;;;;;-6.04;100.00;94237.69;2096099;28;20116;-83
2022/02/12 02:31:23;;;;;;;9.27;3.88;;;;;;;-6.18;100.00;94235.81;2088639;28;20025;-84
2022/02/12 02:32:24;;;;;;;5.45;3.55;;;;;;;-6.24;100.00;94233.53;2088317;28;20043;-83
2022/02/12 02:33:25;;;;;;;8.18;3.53;;;;;;;-6.26;100.00;94233.06;2095999;28;20060;-83
2022/02/12 02:34:26;;;;;;;4.30;3.28;;;;;;;-6.29;100.00;94233.63;2087914;28;20029;-85
2022/02/12 02:35:27;;;;;;;8.40;3.70;;;;;;;-6.31;100.00;94226.09;2095945;28;20032;-84
2022/02/12 02:36:28;;;;;;;6.82;3.33;;;;;;;-6.30;100.00;94224.28;2104015;28;20138;-84
2022/02/12 02:37:29;;;;;;;7.15;3.65;;;;;;;-6.40;100.00;94220.00;2095065;28;20080;-83
2022/02/12 02:38:31;;;;;;;7.68;3.40;;;;;;;-6.38;100.00;94223.06;2101918;28;20103;-84
2022/02/12 02:39:32;;;;;;;6.85;3.40;;;;;;;-6.26;100.00;94226.03;2112680;28;20084;-83
2022/02/12 02:40:33;;;;;;;6.15;3.55;;;;;;;-6.18;100.00;94222.03;2095887;28;20430;-84
2022/02/12 02:41:34;;;;;;;8.25;3.78;;;;;;;-6.23;100.00;94220.28;2095817;28;20031;-84
2022/02/12 02:42:35;;;;;;;6.93;3.97;;;;;;;-6.23;100.00;94219.47;2095683;28;20108;-83
2022/02/12 02:43:37;;;;;;;7.95;3.42;;;;;;;-6.19;100.00;94210.84;2096048;28;20033;-83
2022/02/12 02:44:38;;;;;;;6.55;3.60;;;;;;;-6.26;100.00;94213.03;2095877;28;20039;-82
2022/02/12 02:45:40;;;;;;;7.05;3.55;;;;;;;-6.09;100.00;94207.31;2088230;28;20448;-84
2022/02/12 02:46:41;;;;;;;5.45;3.60;;;;;;;-6.15;100.00;94208.44;2087801;28;20036;-83
2022/02/12 02:47:43;;;;;;;7.15;3.50;;;;;;;-6.16;100.00;94214.69;2087768;28;20392;-82
2022/02/12 02:48:45;;;;;;;7.00;3.47;;;;;;;-6.19;100.00;94210.84;2096565;28;20071;-85
2022/02/12 02:49:46;;;;;;;10.20;4.00;;;;;;;-6.11;100.00;94206.81;2095970;28;20058;-83
2022/02/12 02:56:07;;;;;;;9.50;3.72;;;;;;;-6.20;100.00;94195.50;2106529;28;20050;-83
2022/02/12 02:57:08;;;;;;;10.25;3.08;;;;;;;-6.31;100.00;94197.50;2095916;28;20029;-84
2022/02/12 02:58:09;;;;;;;7.28;3.75;;;;;;;-6.28;100.00;94199.50;2094824;28;20067;-86
2022/02/12 02:59:11;;;;;;;10.57;3.83;;;;;;;-6.34;100.00;94196.22;2103414;28;20024;-84
2022/02/12 03:00:13;;;;;;;7.13;3.40;;;;;;;-6.28;100.00;94196.16;2104107;28;20086;-86
2022/02/12 03:01:17;;;;;;;3.85;3.33;;;;;;;-6.24;100.00;94195.28;2087773;28;20036;-84
2022/02/12 03:02:18;;;;;;;5.57;3.17;;;;;;;-6.35;100.00;94194.69;2096099;28;20475;-84
2022/02/12 03:03:19;;;;;;;7.70;3.80;;;;;;;-6.28;100.00;94189.09;2095785;28;20028;-83
2022/02/12 03:04:21;;;;;;;4.55;3.42;;;;;;;-6.27;100.00;94192.50;2087510;28;20025;-84
2022/02/12 03:05:22;;;;;;;8.35;3.35;;;;;;;-6.44;100.00;94193.00;2095532;28;20123;-83
2022/02/12 03:06:25;;;;;;;5.85;3.40;;;;;;;-6.40;100.00;94186.97;2086685;28;20018;-83
2022/02/12 03:07:26;;;;;;;6.65;4.22;;;;;;;-6.41;100.00;94195.03;2085567;28;20021;-84
2022/02/12 03:08:28;;;;;;;5.50;3.20;;;;;;;-6.38;100.00;94194.47;2094993;28;20025;-83
2022/02/12 03:09:29;;;;;;;5.78;3.78;;;;;;;-6.41;100.00;94193.22;2104099;28;20032;-83
2022/02/12 03:10:30;;;;;;;4.03;3.28;;;;;;;-6.44;100.00;94188.56;2079068;28;20080;-83
2022/02/12 03:11:31;;;;;;;7.55;3.60;;;;;;;-6.48;100.00;94187.59;2087151;28;20029;-83
2022/02/12 03:12:35;;;;;;;6.13;3.47;;;;;;;-6.40;100.00;94184.34;2087503;28;20079;-82
2022/02/12 03:13:37;;;;;;;6.80;3.38;;;;;;;-6.39;100.00;94188.50;2095634;28;20443;-82
2022/02/12 03:14:38;;;;;;;7.88;3.50;;;;;;;-6.47;100.00;94180.56;2088010;28;20025;-85
2022/02/12 03:15:40;;;;;;;6.95;4.07;;;;;;;-6.34;100.00;94180.63;2087381;28;20082;-85
2022/02/12 03:16:41;;;;;;;6.03;3.55;;;;;;;-6.34;100.00;94180.63;2087746;28;20411;-85
2022/02/12 03:17:42;;;;;;;4.40;2.90;;;;;;;-6.46;100.00;94184.69;2087350;28;20029;-84
2022/02/12 03:18:45;;;;;;;6.60;3.45;;;;;;;-6.56;100.00;94177.81;2087434;28;20064;-85
2022/02/12 03:19:46;;;;;;;6.25;3.08;;;;;;;-6.35;100.00;94180.91;2079966;28;20056;-84
2022/02/12 03:20:48;;;;;;;5.32;3.03;;;;;;;-6.61;100.00;94189.06;2087840;28;20112;-84
2022/02/12 03:21:49;;;;;;;4.20;3.42;;;;;;;-6.54;100.00;94180.13;2080867;28;20030;-83
2022/02/12 03:23:07;;;;;;;4.60;2.97;;;;;;;-6.53;100.00;94181.69;2087898;28;20037;-85
2022/02/12 03:24:08;;;;;;;4.53;3.50;;;;;;;-6.56;100.00;94182.25;2078294;28;20041;-84
2022/02/12 03:25:09;;;;;;;5.45;3.53;;;;;;;-6.44;100.00;94185.97;2073778;28;20393;-84
2022/02/12 03:26:11;;;;;;;7.63;3.20;;;;;;;-6.41;100.00;94177.63;2075565;28;20033;-84
2022/02/12 03:27:12;;;;;;;7.57;3.38;;;;;;;-6.44;100.00;94178.16;2082407;28;20025;-84
2022/02/12 03:28:14;;;;;;;5.10;3.53;;;;;;;-6.34;100.00;94180.63;2081817;28;20119;-85
2022/02/12 03:29:14;;;;;;;5.25;3.60;;;;;;;-6.38;100.00;94176.25;2090249;28;20029;-83
2022/02/12 03:30:15;;;;;;;6.50;3.42;;;;;;;-6.55;100.00;94183.78;2090147;28;20033;-84
2022/02/12 03:31:16;;;;;;;9.38;3.10;;;;;;;-6.49;100.00;94180.09;2081877;28;20044;-83
2022/02/12 03:32:17;;;;;;;9.77;3.45;;;;;;;-6.57;100.00;94178.88;2089608;28;20025;-86
2022/02/12 03:33:18;;;;;;;8.52;3.50;;;;;;;-6.61;100.00;94180.50;2089651;28;20094;-83
2022/02/12 03:34:19;;;;;;;7.78;3.33;;;;;;;-6.69;100.00;94176.69;2089975;28;20031;-86
2022/02/12 03:35:26;;;;;;;3.88;3.20;;;;;;;-6.68;100.00;94174.88;2094107;28;20035;-85
2022/02/12 03:36:27;;;;;;;6.43;3.20;;;;;;;-6.62;100.00;94174.53;2090723;28;20159;-84
2022/02/12 03:37:28;;;;;;;5.47;3.20;;;;;;;-6.44;100.00;94167.78;2081803;28;20067;-83
2022/02/12 03:38:31;;;;;;;6.70;3.40;;;;;;;-6.57;100.00;94171.09;2081567;28;20029;-84
2022/02/12 03:39:32;;;;;;;7.75;3.30;;;;;;;-6.61;100.00;94168.28;2090520;28;20123;-84
2022/02/12 03:40:35;;;;;;;5.97;3.00;;;;;;;-6.70;100.00;94171.78;2098118;28;20024;-83
2022/02/12 03:41:36;;;;;;;5.82;3.25;;;;;;;-6.65;100.00;94169.88;2098415;28;20028;-84
2022/02/12 03:42:37;;;;;;;4.60;3.17;;;;;;;-6.60;100.00;94167.22;2098221;28;20095;-84
2022/02/12 03:43:43;;;;;;;6.82;3.58;;;;;;;-6.67;100.00;94166.81;2089662;28;20096;-83
2022/02/12 03:44:44;;;;;;;5.85;3.42;;;;;;;-6.65;100.00;94166.53;2082889;28;20033;-83
2022/02/12 03:45:46;;;;;;;5.32;3.40;;;;;;;-6.68;100.00;94162.63;2081001;28;20029;-83
2022/02/12 03:46:47;;;;;;;5.50;3.38;;;;;;;-6.74;100.00;94166.38;2093743;28;20025;-85
2022/02/12 03:47:49;;;;;;;7.22;3.60;;;;;;;-6.73;100.00;94156.75;2088265;28;20036;-82
2022/02/12 03:48:50;;;;;;;5.70;3.22;;;;;;;-6.74;100.00;94161.19;2079804;28;20077;-84
2022/02/12 03:49:51;;;;;;;5.47;3.25;;;;;;;-6.84;100.00;94163.94;2093314;28;20024;-83
2022/02/12 03:50:53;;;;;;;6.88;3.47;;;;;;;-6.75;100.00;94162.25;2084114;28;20113;-82
2022/02/12 03:51:53;;;;;;;6.22;3.40;;;;;;;-6.77;100.00;94172.13;2081059;28;20116;-83
2022/02/12 03:52:55;;;;;;;6.20;3.53;;;;;;;-6.52;100.00;94165.03;2096608;28;20086;-83
2022/02/12 03:53:56;;;;;;;6.32;3.28;;;;;;;-6.70;100.00;94171.78;2088936;28;20577;-83
2022/02/12 03:54:57;;;;;;;8.75;3.60;;;;;;;-6.69;100.00;94173.34;2080062;28;20080;-83
2022/02/12 03:55:58;;;;;;;7.22;3.53;;;;;;;-6.48;100.00;94168.63;2079093;28;20048;-84
2022/02/12 03:56:59;;;;;;;12.35;4.18;;;;;;;-6.66;100.00;94163.16;2080909;28;20029;-83
2022/02/12 03:58:00;;;;;;;5.70;3.10;;;;;;;-6.73;100.00;94167.16;2072768;28;20205;-84
2022/02/12 03:59:01;;;;;;;5.97;3.97;;;;;;;-6.85;100.00;94159.75;2081206;28;20062;-83
2022/02/12 04:00:11;;;;;;;6.78;3.92;;;;;;;-6.62;100.00;94163.38;2093630;28;20071;-83
2022/02/12 04:01:12;;;;;;;6.80;3.03;;;;;;;-6.89;100.00;94169.16;2099759;28;20444;-83
2022/02/12 04:02:13;;;;;;;5.78;3.50;;;;;;;-6.83;100.00;94159.50;2097298;28;20029;-83
2022/02/12 04:03:14;;;;;;;5.82;3.40;;;;;;;-6.82;100.00;94167.00;2080777;28;20029;-82
2022/02/12 04:04:16;;;;;;;5.32;3.25;;;;;;;-6.68;100.00;94156.66;2087836;28;20101;-83
2022/02/12 04:05:17;;;;;;;6.43;3.58;;;;;;;-6.68;100.00;94157.44;2097733;28;20021;-83
2022/02/12 04:06:18;;;;;;;7.60;3.65;;;;;;;-6.67;100.00;94161.59;2089797;28;20040;-82
2022/02/12 04:07:19;;;;;;;5.00;3.33;;;;;;;-6.79;100.00;94158.66;2097826;28;20040;-83
2022/02/12 04:08:21;;;;;;;6.43;3.95;;;;;;;-6.87;100.00;94157.44;2097309;28;20031;-84
2022/02/12 04:09:23;;;;;;;5.57;3.88;;;;;;;-6.78;100.00;94156.81;2088580;28;20494;-83
2022/02/12 04:10:29;;;;;;;5.85;4.32;;;;;;;-6.90;100.00;94149.44;2075636;28;20073;-82
2022/02/12 04:11:36;;;;;;;5.80;3.13;;;;;;;-6.86;100.00;94147.81;2091006;28;20033;-82
2022/02/12 04:12:37;;;;;;;6.75;3.10;;;;;;;-6.83;100.00;94152.47;2090387;28;20050;-84
2022/02/12 04:13:38;;;;;;;5.68;4.00;;;;;;;-6.82;100.00;94143.59;2081448;28;20021;-84
2022/02/12 04:14:39;;;;;;;7.40;3.72;;;;;;;-6.83;100.00;94142.06;2081344;28;20499;-84
2022/02/12 04:15:40;;;;;;;5.38;3.35;;;;;;;-6.83;100.00;94138.69;2073179;28;20053;-85
2022/02/12 04:16:41;;;;;;;6.50;3.50;;;;;;;-6.82;100.00;94140.25;2089331;28;20013;-83
2022/02/12 04:17:43;;;;;;;5.30;3.45;;;;;;;-6.75;100.00;94130.28;2089644;28;20021;-84
2022/02/12 04:18:45;;;;;;;7.35;3.72;;;;;;;-6.92;100.00;94136.72;2089619;28;20882;-84
2022/02/12 04:19:46;;;;;;;7.35;3.90;;;;;;;-6.83;100.00;94134.28;2097787;28;20024;-83
2022/02/12 04:20:47;;;;;;;5.18;3.47;;;;;;;-6.80;100.00;94125.94;2089654;28;20017;-83
2022/02/12 04:21:48;;;;;;;5.72;3.70;;;;;;;-6.70;100.00;94130.97;2089455;28;20455;-83
2022/02/12 04:22:49;;;;;;;7.00;3.47;;;;;;;-6.82;100.00;94132.44;2081230;28;20079;-84
2022/02/12 04:23:50;;;;;;;6.20;3.10;;;;;;;-6.96;100.00;94137.56;2090412;28;20028;-83
2022/02/12 04:24:51;;;;;;;6.85;3.90;;;;;;;-6.95;100.00;94133.91;2099424;28;20036;-83
2022/02/12 04:25:52;;;;;;;6.40;3.40;;;;;;;-6.90;100.00;94139.03;2089289;28;20063;-84
2022/02/12 04:26:53;;;;;;;5.03;3.35;;;;;;;-6.89;100.00;94133.59;2081045;28;20096;-83
2022/02/12 04:27:54;;;;;;;5.35;3.28;;;;;;;-6.79;100.00;94142.28;2088080;28;20526;-83
2022/02/12 04:28:55;;;;;;;4.43;3.30;;;;;;;-6.69;100.00;94136.94;2089352;28;20021;-83
2022/02/12 04:29:56;;;;;;;4.97;3.22;;;;;;;-6.78;100.00;94136.03;2089651;28;20021;-84
2022/02/12 04:30:57;;;;;;;6.65;3.88;;;;;;;-6.78;100.00;94134.19;2097408;28;20024;-83
2022/02/12 04:31:58;;;;;;;5.22;3.42;;;;;;;-6.67;100.00;94127.81;2097706;28;20044;-83
2022/02/12 04:32:59;;;;;;;6.93;3.72;;;;;;;-6.79;100.00;94119.66;2097683;28;20025;-84
2022/02/12 04:34:00;;;;;;;5.20;3.58;;;;;;;-6.74;100.00;94113.63;2080581;28;20125;-83
2022/02/12 04:35:03;;;;;;;6.68;3.70;;;;;;;-6.69;100.00;94116.91;2089288;28;20434;-84
2022/02/12 04:36:04;;;;;;;3.85;3.40;;;;;;;-6.72;100.00;94122.66;2088650;28;20435;-84
2022/02/12 04:37:05;;;;;;;4.95;3.67;;;;;;;-6.82;100.00;94125.41;2089184;28;20027;-84
2022/02/12 04:38:06;;;;;;;6.15;3.80;;;;;;;-6.90;100.00;94123.44;2088270;28;20051;-84
2022/02/12 04:39:07;;;;;;;8.98;3.85;;;;;;;-6.93;100.00;94121.44;2101968;28;20494;-85
2022/02/12 04:40:09;;;;;;;7.70;4.10;;;;;;;-6.99;100.00;94115.50;2097245;28;20020;-84
2022/02/12 04:41:11;;;;;;;6.20;4.03;;;;;;;-7.07;100.00;94115.38;2081772;28;20124;-84
2022/02/12 04:42:12;;;;;;;7.78;3.67;;;;;;;-7.03;100.00;94111.16;2089225;28;20032;-83
2022/02/12 04:43:13;;;;;;;6.80;3.65;;;;;;;-7.13;100.00;94118.03;2081325;28;20089;-84
2022/02/12 04:44:14;;;;;;;6.07;4.22;;;;;;;-7.00;100.00;94115.81;2072947;28;20018;-82
2022/02/12 04:45:15;;;;;;;10.45;3.90;;;;;;;-6.87;100.00;94115.09;2081381;28;20428;-84
2022/02/12 04:46:16;;;;;;;6.13;3.80;;;;;;;-6.93;100.00;94114.41;2089356;28;20047;-83
2022/02/12 04:47:19;;;;;;;6.93;3.78;;;;;;;-6.99;100.00;94112.16;2080775;28;20025;-83
2022/02/12 04:48:20;;;;;;;7.25;3.85;;;;;;;-6.93;100.00;94122.19;2097220;28;20031;-82
2022/02/12 04:49:22;;;;;;;9.05;3.72;;;;;;;-7.03;100.00;94111.16;2085097;28;20586;-83
2022/02/12 04:50:23;;;;;;;6.15;3.78;;;;;;;-6.90;100.00;94111.22;2089558;28;20021;-83
2022/02/12 04:51:24;;;;;;;8.32;3.97;;;;;;;-6.95;100.00;94105.34;2089130;28;20027;-83
2022/02/12 04:52:25;;;;;;;7.22;3.90;;;;;;;-7.03;100.00;94116.34;2097868;28;20590;-82
2022/02/12 04:53:26;;;;;;;6.40;3.88;;;;;;;-7.05;100.00;94116.66;2089192;28;20036;-82
2022/02/12 04:54:27;;;;;;;4.32;3.75;;;;;;;-7.08;100.00;94100.84;2081089;28;20025;-83
2022/02/12 04:55:27;;;;;;;8.40;3.45;;;;;;;-7.04;100.00;94101.81;2081205;28;20056;-83
2022/02/12 04:56:28;;;;;;;5.15;3.60;;;;;;;-7.10;100.00;94095.94;2089244;28;20070;-83
2022/02/12 04:57:29;;;;;;;4.93;3.85;;;;;;;-7.06;100.00;94103.94;2089257;28;20522;-82
2022/02/12 04:58:30;;;;;;;4.68;3.65;;;;;;;-7.08;100.00;94103.44;2088962;28;20051;-84
2022/02/12 04:59:31;;;;;;;6.63;3.97;;;;;;;-7.08;100.00;94099.00;2096763;28;20016;-83
2022/02/12 05:00:32;;;;;;;6.18;3.72;;;;;;;-7.07;100.00;94102.38;2088841;28;20021;-83
2022/02/12 05:01:33;;;;;;;8.10;4.28;;;;;;;-7.21;100.00;94103.06;2086052;28;20033;-83
2022/02/12 05:02:34;;;;;;;5.80;3.88;;;;;;;-7.16;100.00;94099.63;2080966;28;20025;-83
2022/02/12 05:03:35;;;;;;;4.82;3.55;;;;;;;-7.12;100.00;94105.81;2097609;28;20541;-83
2022/02/12 05:04:36;;;;;;;7.15;3.78;;;;;;;-7.02;100.00;94099.72;2095761;28;20029;-83